Terminal Aerodrome Forecast
Issued by NWS

Home | Current Version | Previous Version | Text Only | Print | Product List | Glossary On
Versions: 1 2 3 4 5 6 7 8 9 10 11 12 13
443
FTUS45 KVEF 221120
TAFEED
TAF
KEED 221120Z 2212/2312 34008KT P6SM FEW250
     FM221700 01011KT P6SM SKC
     FM230200 31006KT P6SM SKC
      AMD NOT SKED=

USA.gov is the U.S. government's official web portal to all federal, state and local government web resources and services.